AFL527 UUEE-ULLI
Flight info
| Callsign | AFL527 |
|---|---|
| Flight time | N/A |
| Altitude | 36000 |
| Route | TOKNU L4 NUDKO T561 ODATI T875 GENPA |
| Aircraft | A359/H-SDE2E3GHIJ3J4J5LM1ORWXY/LB1D1 |
Departure
| Time | N/A |
|---|---|
| Airport | Sheremetyevo International Airport (UUEE) |
Arrival
| Time | 2026-05-04 15:47 |
|---|---|
| Airport | Pulkovo Airport (ULLI) |
| Time | Latitude | Longitude | Altitude | Speed | Heading |
|---|---|---|---|---|---|
| 2026-05-04 15:46 | 59.79938 | 30.23376 | 87 ft | 7 kts | 107° |
| 2026-05-04 15:47 | 59.79929 | 30.23436 | 88 ft | 8 kts | 107° |
| 2026-05-04 15:47 | 59.79911 | 30.23559 | 88 ft | 11 kts | 106° |
| 2026-05-04 15:47 | 59.79883 | 30.23743 | 90 ft | 16 kts | 106° |
| 2026-05-04 15:47 | 59.79843 | 30.24008 | 90 ft | 21 kts | 107° |
| 2026-05-04 15:48 | 59.79796 | 30.24310 | 90 ft | 24 kts | 108° |
| 2026-05-04 15:48 | 59.79750 | 30.24640 | 90 ft | 25 kts | 105° |
| 2026-05-04 15:48 | 59.79649 | 30.25317 | 96 ft | 26 kts | 108° |
| 2026-05-04 15:49 | 59.79599 | 30.25670 | 95 ft | 27 kts | 106° |
| 2026-05-04 15:49 | 59.79557 | 30.25943 | 94 ft | 17 kts | 107° |
| 2026-05-04 15:49 | 59.79527 | 30.26150 | 93 ft | 12 kts | 105° |
| 2026-05-04 15:49 | 59.79533 | 30.26293 | 93 ft | 9 kts | 44° |
| 2026-05-04 15:50 | 59.79561 | 30.26313 | 93 ft | 1 kts | 15° |
| 2026-05-04 15:50 | 59.79580 | 30.26326 | 93 ft | 4 kts | 18° |
| 2026-05-04 15:50 | 59.79616 | 30.26349 | 93 ft | 6 kts | 18° |
| 2026-05-04 15:50 | 59.79666 | 30.26383 | 93 ft | 8 kts | 18° |
| 2026-05-04 15:51 | 59.79706 | 30.26408 | 93 ft | 6 kts | 20° |
| 2026-05-04 15:51 | 59.79737 | 30.26461 | 93 ft | 6 kts | 61° |
| 2026-05-04 15:51 | 59.79737 | 30.26527 | 93 ft | 4 kts | 104° |
| 2026-05-04 15:51 | 59.79727 | 30.26596 | 93 ft | 6 kts | 106° |
| 2026-05-04 15:52 | 59.79724 | 30.26612 | 93 ft | 0 kts | 105° |